Terminal Aerodrome Forecast
Issued by NWS Corpus Christi, TX

Current Version | Previous Version | Text Only | Print | Product List | Glossary On
Versions: 1 2 3 4 5 6 7 8 9 10 11 12 13 14 15 16
000
FTUS44 KCRP 161100
TAFVCT
TAF
KVCT 161120Z 1612/1712 09005KT P6SM SKC
     FM161600 13012KT P6SM FEW030 BKN250
     FM161800 13015G20KT P6SM SCT040 OVC250
     FM170300 13010KT P6SM SCT030 OVC250
     FM170800 12007KT P6SM BKN015
      TEMPO 1708/1712 3SM BR=

USA.gov is the U.S. government's official web portal to all federal, state and local government web resources and services.